createdAt,value
2019-05-22T00:02:40.923Z,16.57
2019-05-22T00:07:22.626Z,16.87
2019-05-22T00:12:03.080Z,17.87
2019-05-22T00:16:48.335Z,15.27
2019-05-22T00:21:27.209Z,17.47
2019-05-22T00:26:07.437Z,15.93
2019-05-22T00:30:48.428Z,17.60
2019-05-22T00:35:28.602Z,17.70
2019-05-22T00:40:08.862Z,19.93
2019-05-22T00:44:53.563Z,17.77
2019-05-22T00:49:33.626Z,22.23
2019-05-22T00:53:57.368Z,12.90
2019-05-22T00:58:41.571Z,13.37
2019-05-22T01:03:22.283Z,12.03
2019-05-22T01:08:05.684Z,12.20
2019-05-22T01:12:46.769Z,13.90
2019-05-22T01:17:27.220Z,13.23
2019-05-22T01:22:08.414Z,13.97
2019-05-22T01:26:49.392Z,13.20
2019-05-22T01:31:41.296Z,12.87
2019-05-22T01:36:27.520Z,17.57
2019-05-22T01:41:09.871Z,22.00
2019-05-22T01:45:54.400Z,16.30
2019-05-22T01:50:33.145Z,16.03
2019-05-22T01:54:35.787Z,19.07
2019-05-22T01:59:14.799Z,20.20
2019-05-22T02:03:55.916Z,20.23
2019-05-22T02:08:35.556Z,17.43
2019-05-22T02:13:14.884Z,20.00
2019-05-22T02:17:56.581Z,21.00
2019-05-22T02:22:40.317Z,18.47
2019-05-22T02:27:19.431Z,21.07
2019-05-22T02:31:58.782Z,22.80
2019-05-22T02:36:40.108Z,25.00
2019-05-22T02:41:20.257Z,26.40
2019-05-22T02:45:59.771Z,29.17
2019-05-22T02:50:39.233Z,26.40
2019-05-22T02:54:42.566Z,30.33
2019-05-22T02:59:22.465Z,31.80
2019-05-22T03:04:03.146Z,22.77
2019-05-22T03:08:42.102Z,28.40
2019-05-22T03:13:23.166Z,22.50
2019-05-22T03:18:04.326Z,25.50
2019-05-22T03:22:44.549Z,26.30
2019-05-22T03:27:24.360Z,24.83
2019-05-22T03:32:04.831Z,27.10
2019-05-22T03:36:44.441Z,24.30
2019-05-22T03:41:23.627Z,26.73
2019-05-22T03:46:04.544Z,34.83
2019-05-22T03:50:43.743Z,27.33
2019-05-22T03:54:46.495Z,32.13
2019-05-22T03:59:25.650Z,31.67
2019-05-22T04:04:05.934Z,32.67
2019-05-22T04:08:45.355Z,24.63
2019-05-22T04:13:25.527Z,28.40
2019-05-22T04:18:05.878Z,30.73
2019-05-22T04:22:45.377Z,30.67
2019-05-22T04:27:25.172Z,30.00
2019-05-22T04:32:13.216Z,25.67
2019-05-22T04:36:53.680Z,31.60
2019-05-22T04:41:33.041Z,24.43
2019-05-22T04:46:12.900Z,28.80
2019-05-22T04:50:52.818Z,25.90
2019-05-22T04:54:55.866Z,24.80
2019-05-22T04:59:36.015Z,27.17
2019-05-22T05:04:15.470Z,29.40
2019-05-22T05:08:55.126Z,23.67
2019-05-22T05:13:34.603Z,26.40
2019-05-22T05:18:14.046Z,28.87
2019-05-22T05:22:53.445Z,25.23
2019-05-22T05:27:33.213Z,31.77
2019-05-22T05:32:12.227Z,25.27
2019-05-22T05:36:51.676Z,22.37
2019-05-22T05:41:30.611Z,23.27
2019-05-22T05:46:11.178Z,28.07
2019-05-22T05:50:50.401Z,26.13
2019-05-22T05:55:12.365Z,28.50
2019-05-22T05:59:53.115Z,28.00
2019-05-22T06:04:35.059Z,27.87
2019-05-22T06:09:14.072Z,22.30
2019-05-22T06:13:16.989Z,23.53
2019-05-22T06:17:57.488Z,23.93
2019-05-22T06:22:37.041Z,25.80
2019-05-22T06:27:31.230Z,22.20
2019-05-22T06:32:12.260Z,27.97
2019-05-22T06:36:51.569Z,24.73
2019-05-22T06:41:37.569Z,21.53
2019-05-22T06:46:16.786Z,22.40
2019-05-22T06:50:56.355Z,20.97
2019-05-22T06:55:35.723Z,23.50
2019-05-22T06:59:38.419Z,23.07
2019-05-22T07:04:17.936Z,24.10
2019-05-22T07:08:57.416Z,22.80
2019-05-22T07:13:38.506Z,23.60
2019-05-22T07:18:19.332Z,27.13
2019-05-22T07:22:59.842Z,20.53
2019-05-22T07:27:40.588Z,25.73
2019-05-22T07:32:19.735Z,22.37
2019-05-22T07:37:00.565Z,21.70
2019-05-22T07:41:39.996Z,20.60
2019-05-22T07:46:19.220Z,25.53
2019-05-22T07:50:58.920Z,25.13
2019-05-22T07:55:38.029Z,25.47
2019-05-22T07:59:40.621Z,29.17
2019-05-22T08:04:20.261Z,22.20
2019-05-22T08:08:59.579Z,25.93
2019-05-22T08:13:39.540Z,24.20
2019-05-22T08:18:20.398Z,23.53
2019-05-22T08:23:00.084Z,17.20
2019-05-22T08:27:39.940Z,18.57
2019-05-22T08:32:22.125Z,19.70
2019-05-22T08:37:01.119Z,19.10
2019-05-22T08:41:40.412Z,22.67
2019-05-22T08:46:23.868Z,26.23
2019-05-22T08:51:01.275Z,17.43
2019-05-22T08:55:41.113Z,15.43
2019-05-22T08:59:45.182Z,20.27
2019-05-22T09:04:25.847Z,17.30
2019-05-22T09:09:04.790Z,21.63
2019-05-22T09:13:44.168Z,22.23
2019-05-22T09:18:23.697Z,14.63
2019-05-22T09:23:03.057Z,19.63
2019-05-22T09:27:43.222Z,11.30
2019-05-22T09:32:25.685Z,12.80
2019-05-22T09:37:06.382Z,12.37
2019-05-22T09:41:45.050Z,13.13
2019-05-22T09:46:29.752Z,13.77
2019-05-22T09:51:06.200Z,14.27
2019-05-22T09:55:47.327Z,11.63
2019-05-22T09:59:50.403Z,15.37
2019-05-22T10:04:30.437Z,7.90
2019-05-22T10:09:09.628Z,9.77
2019-05-22T10:13:49.405Z,9.20
2019-05-22T10:18:29.108Z,12.13
2019-05-22T10:23:15.290Z,7.00
2019-05-22T10:27:50.352Z,8.47
2019-05-22T10:32:33.049Z,5.90
2019-05-22T10:37:12.300Z,7.53
2019-05-22T10:41:51.739Z,7.03
2019-05-22T10:46:30.935Z,12.13
2019-05-22T10:51:11.738Z,7.60
2019-05-22T10:55:51.088Z,9.70
2019-05-22T10:59:53.684Z,12.20
2019-05-22T11:04:35.177Z,11.67
2019-05-22T11:09:14.642Z,6.13
2019-05-22T11:14:01.551Z,8.20
2019-05-22T11:18:35.228Z,8.27
2019-05-22T11:23:14.500Z,6.43
2019-05-22T11:27:54.386Z,6.97
2019-05-22T11:32:33.763Z,10.20
2019-05-22T11:37:13.008Z,7.03
2019-05-22T11:41:52.190Z,10.83
2019-05-22T11:46:31.419Z,8.93
2019-05-22T11:51:27.835Z,8.50
2019-05-22T11:56:07.095Z,6.33
2019-05-22T12:00:11.467Z,12.63
2019-05-22T12:04:51.940Z,5.80
2019-05-22T12:09:31.503Z,4.67
2019-05-22T12:14:12.835Z,13.97
2019-05-22T12:18:53.875Z,5.93
2019-05-22T12:23:36.020Z,6.53
2019-05-22T12:28:15.000Z,3.50
2019-05-22T12:32:54.721Z,3.60
2019-05-22T12:37:34.742Z,5.30
2019-05-22T12:42:15.964Z,6.13
2019-05-22T12:46:55.510Z,4.00
2019-05-22T12:51:34.845Z,5.63
2019-05-22T12:56:14.359Z,6.57
2019-05-22T13:00:21.939Z,8.40
2019-05-22T13:05:01.108Z,5.17
2019-05-22T13:09:43.380Z,2.93
2019-05-22T13:13:46.065Z,5.73
2019-05-22T13:18:26.287Z,4.13
2019-05-22T13:23:05.551Z,3.70
2019-05-22T13:27:45.195Z,3.50
2019-05-22T13:32:26.216Z,3.80
2019-05-22T13:37:07.302Z,4.57
2019-05-22T13:41:47.676Z,8.00
2019-05-22T13:46:26.659Z,3.40
2019-05-22T13:51:06.735Z,6.43
2019-05-22T13:55:45.801Z,4.70
2019-05-22T13:59:49.394Z,4.93
2019-05-22T14:04:28.622Z,9.70
2019-05-22T14:09:08.507Z,6.10
2019-05-22T14:13:36.594Z,3.33
2019-05-22T14:18:15.759Z,8.10
2019-05-22T14:22:54.763Z,4.27
2019-05-22T14:27:34.009Z,4.47
2019-05-22T14:32:13.682Z,4.30
2019-05-22T14:36:52.908Z,4.00
2019-05-22T14:41:32.207Z,5.63
2019-05-22T14:46:14.749Z,5.37
2019-05-22T14:50:54.115Z,4.17
2019-05-22T14:55:36.535Z,5.17
2019-05-22T15:00:17.121Z,5.57
2019-05-22T15:04:19.904Z,9.60
2019-05-22T15:08:59.232Z,4.90
2019-05-22T15:13:38.336Z,10.00
2019-05-22T15:18:17.491Z,7.53
2019-05-22T15:22:56.682Z,5.57
2019-05-22T15:27:36.639Z,5.23
2019-05-22T15:32:16.963Z,5.83
2019-05-22T15:36:56.744Z,8.23
2019-05-22T15:41:35.697Z,5.77
2019-05-22T15:46:15.328Z,3.63
2019-05-22T15:50:56.989Z,5.60
2019-05-22T15:55:36.116Z,3.37
2019-05-22T16:00:16.453Z,6.77
2019-05-22T16:04:23.884Z,5.30
2019-05-22T16:09:05.872Z,3.60
2019-05-22T16:13:46.113Z,4.87
2019-05-22T16:18:26.998Z,3.03
2019-05-22T16:23:06.947Z,3.03
2019-05-22T16:27:46.257Z,6.10
2019-05-22T16:32:25.564Z,6.50
2019-05-22T16:37:04.856Z,4.97
2019-05-22T16:41:44.267Z,8.90
2019-05-22T16:46:23.700Z,6.67
2019-05-22T16:51:02.791Z,9.60
2019-05-22T16:55:41.757Z,6.33
2019-05-22T17:00:20.942Z,5.13
2019-05-22T17:04:23.815Z,4.07
2019-05-22T17:09:18.856Z,5.20
2019-05-22T17:14:05.150Z,4.90
2019-05-22T17:18:47.777Z,9.60
2019-05-22T17:23:22.726Z,5.37
2019-05-22T17:28:03.087Z,8.93
2019-05-22T17:37:00.585Z,6.70
2019-05-22T17:41:40.969Z,5.40
2019-05-22T17:46:21.077Z,4.30
2019-05-22T17:51:01.539Z,3.40
2019-05-22T17:55:41.166Z,4.03
2019-05-22T18:00:26.479Z,4.80
2019-05-22T18:04:29.507Z,3.57
2019-05-22T18:09:09.651Z,5.40
2019-05-22T18:13:49.149Z,3.23
2019-05-22T18:18:28.634Z,5.80
2019-05-22T18:23:08.351Z,4.13
2019-05-22T18:27:49.534Z,4.43
2019-05-22T18:32:31.530Z,7.63
2019-05-22T18:36:34.396Z,4.27
2019-05-22T18:41:13.578Z,4.60
2019-05-22T18:45:53.106Z,3.83
2019-05-22T18:50:33.574Z,6.20
2019-05-22T18:55:12.882Z,6.73
2019-05-22T18:59:51.683Z,4.43
2019-05-22T19:03:54.683Z,10.77
2019-05-22T19:08:35.306Z,6.57
2019-05-22T19:12:38.433Z,2.30
2019-05-22T19:17:20.583Z,3.17
2019-05-22T19:22:12.211Z,12.03
2019-05-22T19:26:54.993Z,8.10
2019-05-22T19:31:34.400Z,3.07
2019-05-22T19:36:13.629Z,4.33
2019-05-22T19:40:52.876Z,5.00
2019-05-22T19:45:32.340Z,7.20
2019-05-22T19:50:23.124Z,6.30
2019-05-22T19:54:56.956Z,3.00
2019-05-22T19:59:36.653Z,5.33
2019-05-22T20:03:39.578Z,3.87
2019-05-22T20:08:19.323Z,6.00
2019-05-22T20:13:02.354Z,4.37
2019-05-22T20:17:42.004Z,5.00
2019-05-22T20:22:21.927Z,6.30
2019-05-22T20:27:01.711Z,8.80
2019-05-22T20:31:41.652Z,10.60
2019-05-22T20:36:20.972Z,3.70
2019-05-22T20:41:00.066Z,3.17
2019-05-22T20:45:40.519Z,5.20
2019-05-22T20:50:20.674Z,5.73
2019-05-22T20:55:01.714Z,10.60
2019-05-22T20:59:41.521Z,4.40
2019-05-22T21:03:44.911Z,6.10
2019-05-22T21:08:24.798Z,3.03
2019-05-22T21:13:08.936Z,7.13
2019-05-22T21:17:48.875Z,4.20
2019-05-22T21:22:38.077Z,4.90
2019-05-22T21:27:17.938Z,6.23
2019-05-22T21:31:58.046Z,6.50
2019-05-22T21:36:37.366Z,5.60
2019-05-22T21:41:16.956Z,7.33
2019-05-22T21:45:56.567Z,3.70
2019-05-22T21:50:36.137Z,4.97
2019-05-22T21:55:17.272Z,7.20
2019-05-22T21:59:59.742Z,5.57
2019-05-22T22:04:25.121Z,6.33
2019-05-22T22:09:06.515Z,3.93
2019-05-22T22:13:47.081Z,4.13
2019-05-22T22:18:30.216Z,7.90
2019-05-22T22:23:10.071Z,4.47
2019-05-22T22:27:52.886Z,4.43
2019-05-22T22:32:34.314Z,7.90
2019-05-22T22:37:18.792Z,7.03
2019-05-22T22:41:59.082Z,8.20
2019-05-22T22:46:43.069Z,5.27
2019-05-22T22:51:24.053Z,5.70
2019-05-22T22:56:05.653Z,7.90
2019-05-22T23:00:45.674Z,7.40
2019-05-22T23:04:49.995Z,5.83
2019-05-22T23:09:29.652Z,5.27
2019-05-22T23:14:09.677Z,7.13
2019-05-22T23:18:48.737Z,4.37
2019-05-22T23:23:28.798Z,5.23
2019-05-22T23:28:07.971Z,5.83
2019-05-22T23:32:47.179Z,4.80
2019-05-22T23:37:27.429Z,6.43
2019-05-22T23:42:13.829Z,5.97
2019-05-22T23:46:53.518Z,8.90
2019-05-22T23:51:32.652Z,5.27
2019-05-22T23:56:11.862Z,11.60
